Time;durP1;ratioP1;P1;durP2;ratioP2;P2;SDS_P1;SDS_P2;PMS_P1;PMS_P2;Temp;Humidity;BMP_temperature;BMP_pressure;BME280_temperature;BME280_humidity;BME280_pressure;Samples;Min_cycle;Max_cycle;Signal;HPM_P1;HPM_P2
2022/03/12 00:00:30;;;;;;;15.27;7.85;;;8.50;50.50;;;;;;4919401;29;20440;-81
2022/03/12 00:02:57;;;;;;;14.10;7.55;;;8.50;50.70;;;;;;4919143;29;20024;-81
2022/03/12 00:05:27;;;;;;;16.58;7.47;;;8.50;51.00;;;;;;4919351;29;20084;-81
2022/03/12 00:07:53;;;;;;;14.52;7.55;;;8.40;50.50;;;;;;4935932;29;20035;-80
2022/03/12 00:10:22;;;;;;;12.70;7.13;;;8.40;50.80;;;;;;4936356;29;20418;-81
2022/03/12 00:12:48;;;;;;;14.40;7.90;;;8.40;51.80;;;;;;4935361;29;20469;-81
2022/03/12 00:15:14;;;;;;;16.08;7.78;;;8.40;51.40;;;;;;4936171;29;20040;-81
2022/03/12 00:17:43;;;;;;;15.25;7.35;;;8.40;50.80;;;;;;4918854;29;20036;-81
2022/03/12 00:20:12;;;;;;;17.08;7.70;;;8.30;50.80;;;;;;4936051;29;20038;-81
2022/03/12 00:22:47;;;;;;;16.20;7.90;;;8.30;50.80;;;;;;4918795;29;20044;-78
2022/03/12 00:25:19;;;;;;;18.30;8.55;;;8.30;51.10;;;;;;4919462;29;20099;-80
2022/03/12 00:27:45;;;;;;;15.75;8.40;;;8.30;51.80;;;;;;4935574;29;20067;-80
2022/03/12 00:30:16;;;;;;;14.77;7.38;;;8.20;51.20;;;;;;4919501;29;20031;-80
2022/03/12 00:32:41;;;;;;;13.82;7.53;;;8.20;51.00;;;;;;4918660;29;20492;-81
2022/03/12 00:35:09;;;;;;;14.48;7.53;;;8.20;50.90;;;;;;4919276;29;20032;-81
2022/03/12 00:37:35;;;;;;;15.70;7.18;;;8.20;51.20;;;;;;4935815;29;20035;-76
2022/03/12 00:40:01;;;;;;;15.18;8.05;;;8.20;51.00;;;;;;4918933;29;20079;-81
2022/03/12 00:42:27;;;;;;;15.70;7.50;;;8.10;51.10;;;;;;4919126;29;20461;-81
2022/03/12 00:44:52;;;;;;;15.88;7.63;;;8.10;51.90;;;;;;4935481;29;20032;-81
2022/03/12 00:47:18;;;;;;;13.85;7.38;;;8.10;52.90;;;;;;4935944;29;20385;-82
2022/03/12 00:49:45;;;;;;;14.93;7.35;;;8.10;51.50;;;;;;4917911;29;20083;-81
2022/03/12 00:52:11;;;;;;;13.27;7.35;;;8.10;51.80;;;;;;4919022;29;20561;-82
2022/03/12 00:54:36;;;;;;;16.33;7.82;;;8.10;52.30;;;;;;4919106;29;20118;-79
2022/03/12 00:57:02;;;;;;;15.68;7.65;;;8.10;52.40;;;;;;4918996;29;20035;-81
2022/03/12 00:59:28;;;;;;;16.85;7.97;;;8.20;52.90;;;;;;4919172;29;20035;-81
2022/03/12 01:01:54;;;;;;;13.90;7.35;;;8.20;52.40;;;;;;4918513;29;20023;-80
2022/03/12 01:04:19;;;;;;;15.55;8.40;;;8.10;52.80;;;;;;4919161;29;20038;-80
2022/03/12 01:06:46;;;;;;;16.48;8.07;;;8.10;53.00;;;;;;4918685;29;20032;-80
2022/03/12 01:09:12;;;;;;;15.73;8.27;;;8.10;53.20;;;;;;4919045;29;20028;-81
2022/03/12 01:11:39;;;;;;;15.80;8.15;;;8.00;52.80;;;;;;4918503;29;20101;-80
2022/03/12 01:14:06;;;;;;;15.75;7.72;;;8.00;52.20;;;;;;4935868;29;20114;-81
2022/03/12 01:16:35;;;;;;;19.88;8.27;;;8.00;52.80;;;;;;4935642;29;20465;-81
2022/03/12 01:19:01;;;;;;;17.60;8.18;;;7.90;53.30;;;;;;4913935;29;20114;-80
2022/03/12 01:21:26;;;;;;;19.63;7.60;;;7.90;53.50;;;;;;4918452;29;20513;-81
2022/03/12 01:23:52;;;;;;;14.25;7.38;;;7.90;53.70;;;;;;4935063;29;20028;-81
2022/03/12 01:26:19;;;;;;;15.90;7.90;;;7.90;54.30;;;;;;4938119;29;20078;-79
2022/03/12 01:28:46;;;;;;;14.85;7.65;;;8.00;54.10;;;;;;4938074;29;20027;-79
2022/03/12 01:31:13;;;;;;;14.52;7.65;;;8.00;54.60;;;;;;4938705;29;20028;-79
2022/03/12 01:33:39;;;;;;;15.52;7.55;;;7.90;54.90;;;;;;4933415;29;20372;-77
2022/03/12 01:36:06;;;;;;;18.52;7.63;;;8.00;53.90;;;;;;4953706;29;20114;-79
2022/03/12 01:38:48;;;;;;;15.15;7.93;;;7.90;53.70;;;;;;4938518;29;20027;-79
2022/03/12 01:41:38;;;;;;;15.82;7.88;;;7.90;54.20;;;;;;4921451;29;20388;-79
2022/03/12 01:44:05;;;;;;;14.98;7.88;;;7.90;54.20;;;;;;4921319;29;20035;-79
2022/03/12 01:46:35;;;;;;;17.67;7.60;;;7.90;54.10;;;;;;4938433;29;20023;-79
2022/03/12 01:49:10;;;;;;;16.00;7.80;;;7.80;54.10;;;;;;4937816;29;20039;-79
2022/03/12 01:51:37;;;;;;;15.20;8.25;;;7.80;53.90;;;;;;4937950;29;20039;-77
2022/03/12 01:54:04;;;;;;;14.98;8.23;;;7.80;53.80;;;;;;4921006;29;20043;-79
2022/03/12 01:56:30;;;;;;;16.90;8.23;;;7.80;53.90;;;;;;4921467;29;20038;-80
2022/03/12 01:59:01;;;;;;;14.48;7.60;;;7.80;53.80;;;;;;4920792;29;20049;-81
2022/03/12 02:01:29;;;;;;;15.45;8.23;;;7.70;54.20;;;;;;4921341;29;20054;-81
2022/03/12 02:03:56;;;;;;;14.63;7.82;;;7.70;54.70;;;;;;4936832;29;20123;-81
2022/03/12 02:06:22;;;;;;;19.42;7.65;;;7.70;54.60;;;;;;4921120;29;20031;-81
2022/03/12 02:08:49;;;;;;;17.35;8.05;;;7.70;54.10;;;;;;4916473;29;20060;-81
2022/03/12 02:11:26;;;;;;;16.40;7.93;;;7.70;54.20;;;;;;4919129;29;20092;-81
2022/03/12 02:14:17;;;;;;;18.98;8.20;;;7.70;54.50;;;;;;4918562;29;20031;-81
2022/03/12 02:17:05;;;;;;;11.67;6.20;;;7.70;54.50;;;;;;4900942;29;20498;-80
2022/03/12 02:19:32;;;;;;;18.58;7.68;;;7.60;54.80;;;;;;4902224;29;20032;-80
2022/03/12 02:22:13;;;;;;;16.70;7.93;;;7.50;55.60;;;;;;4901256;29;20048;-81
2022/03/12 02:24:39;;;;;;;15.02;8.07;;;7.50;56.20;;;;;;4901421;29;20028;-80
2022/03/12 02:27:10;;;;;;;17.63;7.97;;;7.40;55.50;;;;;;4901899;29;20036;-83
2022/03/12 02:29:37;;;;;;;14.32;7.15;;;7.40;55.80;;;;;;4918775;29;20091;-80
2022/03/12 02:32:09;;;;;;;16.52;8.25;;;7.30;55.60;;;;;;4902137;29;20127;-81
2022/03/12 02:34:43;;;;;;;15.15;7.28;;;7.20;55.30;;;;;;4902469;29;20028;-83
2022/03/12 02:37:10;;;;;;;15.68;7.15;;;7.10;55.40;;;;;;4918172;29;20040;-80
2022/03/12 02:39:38;;;;;;;16.77;8.15;;;7.10;56.40;;;;;;4928480;29;20034;-77
2022/03/12 02:42:07;;;;;;;14.45;7.10;;;7.10;55.90;;;;;;4920492;29;20114;-81
2022/03/12 02:44:33;;;;;;;12.83;7.50;;;7.10;55.90;;;;;;4919272;29;20484;-80
2022/03/12 02:47:22;;;;;;;19.55;7.57;;;7.20;55.40;;;;;;4919751;29;20032;-80
2022/03/12 02:49:54;;;;;;;17.73;8.48;;;7.20;56.60;;;;;;4948162;29;20055;-80
2022/03/12 02:52:22;;;;;;;20.35;8.07;;;7.20;56.60;;;;;;4938884;29;20031;-80
2022/03/12 02:54:50;;;;;;;15.05;7.78;;;7.20;57.20;;;;;;4938496;29;20027;-80
2022/03/12 02:57:17;;;;;;;14.45;7.75;;;7.20;58.40;;;;;;4938764;29;20044;-80
2022/03/12 02:59:45;;;;;;;13.65;7.70;;;7.20;56.80;;;;;;4938077;29;20036;-79
2022/03/12 03:02:12;;;;;;;13.65;8.13;;;7.20;57.20;;;;;;4955760;29;20377;-79
2022/03/12 03:04:39;;;;;;;18.95;7.80;;;7.10;57.90;;;;;;4955358;29;20078;-77
2022/03/12 03:07:10;;;;;;;15.90;7.88;;;7.10;58.00;;;;;;4955475;29;20031;-80
2022/03/12 03:09:36;;;;;;;15.73;8.32;;;7.00;57.70;;;;;;4955674;29;20455;-80
2022/03/12 03:12:07;;;;;;;19.27;7.90;;;6.90;58.50;;;;;;4937993;29;20110;-80
2022/03/12 03:14:33;;;;;;;13.38;7.65;;;6.90;59.20;;;;;;4955650;29;20028;-80
2022/03/12 03:17:00;;;;;;;16.73;7.53;;;6.90;59.40;;;;;;4938016;29;20553;-80
2022/03/12 03:19:26;;;;;;;16.08;7.80;;;6.80;59.90;;;;;;4938433;29;20039;-80
2022/03/12 03:21:57;;;;;;;16.48;7.43;;;6.80;59.80;;;;;;4955092;29;20113;-79
2022/03/12 03:24:24;;;;;;;16.93;7.83;;;6.70;61.50;;;;;;4955179;29;20035;-79
2022/03/12 03:26:53;;;;;;;16.95;8.75;;;6.70;61.80;;;;;;4937180;29;20126;-79
2022/03/12 03:29:21;;;;;;;19.58;8.32;;;6.80;60.30;;;;;;4938452;29;20031;-79
2022/03/12 03:31:48;;;;;;;13.20;7.17;;;6.80;60.20;;;;;;4954552;29;20085;-79
2022/03/12 03:34:15;;;;;;;20.52;8.52;;;6.80;60.70;;;;;;4938234;29;20122;-79
2022/03/12 03:36:41;;;;;;;13.45;7.57;;;6.90;62.20;;;;;;4954742;29;20122;-77
2022/03/12 03:39:07;;;;;;;17.27;7.53;;;6.90;63.00;;;;;;4937842;29;20067;-79
2022/03/12 03:41:33;;;;;;;18.20;8.50;;;6.80;62.40;;;;;;4938145;29;20027;-79
2022/03/12 03:43:59;;;;;;;14.90;8.15;;;6.80;62.50;;;;;;4937476;29;20023;-79
2022/03/12 03:46:26;;;;;;;15.87;7.80;;;6.80;61.40;;;;;;4938127;29;20118;-83
2022/03/12 03:48:53;;;;;;;17.37;7.67;;;6.90;60.30;;;;;;4917112;28;1090257;-81
2022/03/12 03:51:20;;;;;;;14.43;7.83;;;6.90;59.80;;;;;;4938907;29;20046;-81
2022/03/12 03:53:46;;;;;;;14.02;7.63;;;6.90;59.80;;;;;;4938531;29;20488;-80
2022/03/12 03:56:12;;;;;;;14.68;7.60;;;6.90;60.20;;;;;;4938814;29;20123;-80
2022/03/12 03:58:37;;;;;;;14.40;7.10;;;6.90;60.90;;;;;;4938261;29;20033;-81
2022/03/12 04:01:06;;;;;;;19.23;8.20;;;6.90;61.30;;;;;;4938196;29;20344;-81
2022/03/12 04:03:36;;;;;;;15.50;7.47;;;6.90;60.40;;;;;;4938823;29;20034;-80
2022/03/12 04:06:03;;;;;;;13.73;7.15;;;7.00;60.80;;;;;;4938306;29;20027;-80
2022/03/12 04:08:29;;;;;;;15.93;7.53;;;6.90;60.00;;;;;;4938549;29;20066;-81
2022/03/12 04:10:55;;;;;;;14.90;7.22;;;7.00;59.20;;;;;;4954612;29;20124;-79
2022/03/12 04:13:22;;;;;;;17.30;8.00;;;7.00;59.00;;;;;;4937932;29;20114;-79
2022/03/12 04:15:50;;;;;;;14.85;8.27;;;6.90;59.00;;;;;;4937410;29;20065;-79
2022/03/12 04:18:17;;;;;;;13.70;7.87;;;7.00;59.70;;;;;;4938019;29;20042;-81
2022/03/12 04:20:47;;;;;;;14.47;7.33;;;6.90;59.90;;;;;;4954942;29;20023;-78
2022/03/12 04:23:16;;;;;;;17.90;7.63;;;6.90;58.70;;;;;;4938676;29;20034;-80
2022/03/12 04:25:42;;;;;;;15.77;7.73;;;7.00;58.50;;;;;;4938219;29;20023;-79
2022/03/12 04:28:08;;;;;;;14.90;7.70;;;6.90;58.90;;;;;;4937956;29;20384;-81
2022/03/12 04:30:33;;;;;;;14.23;7.83;;;7.00;59.50;;;;;;4938403;29;20428;-80
2022/03/12 04:32:59;;;;;;;15.43;7.60;;;7.00;59.20;;;;;;4938139;29;20035;-81
2022/03/12 04:35:25;;;;;;;14.07;7.57;;;6.90;59.90;;;;;;4955423;29;20089;-82
2022/03/12 04:37:52;;;;;;;14.47;7.40;;;7.00;59.60;;;;;;4937274;29;20094;-80
2022/03/12 04:40:26;;;;;;;14.10;7.53;;;6.90;58.80;;;;;;4938650;29;20091;-80
2022/03/12 04:42:53;;;;;;;16.77;6.60;;;6.90;58.20;;;;;;4937748;29;20059;-80
2022/03/12 04:45:25;;;;;;;10.88;6.78;;;6.90;58.90;;;;;;4954996;29;20062;-80
2022/03/12 04:47:51;;;;;;;14.35;7.10;;;6.90;59.80;;;;;;4937779;29;20102;-79
2022/03/12 04:50:18;;;;;;;14.63;7.13;;;7.00;60.60;;;;;;4937675;29;20051;-80
2022/03/12 04:52:46;;;;;;;15.40;7.30;;;7.00;60.70;;;;;;4937653;29;20027;-77
2022/03/12 04:55:17;;;;;;;12.77;6.70;;;7.00;61.20;;;;;;4955172;29;20482;-80
2022/03/12 04:57:43;;;;;;;13.20;6.63;;;7.10;60.90;;;;;;4955192;29;20077;-79
2022/03/12 05:00:25;;;;;;;12.67;6.50;;;7.10;60.70;;;;;;4939347;29;20031;-80
2022/03/12 05:03:01;;;;;;;14.23;7.00;;;7.10;60.40;;;;;;4958323;29;20487;-80
2022/03/12 05:05:27;;;;;;;11.60;6.47;;;7.10;60.20;;;;;;4941737;29;20028;-81
2022/03/12 05:07:52;;;;;;;13.05;6.72;;;6.90;60.20;;;;;;4941259;29;20495;-80
2022/03/12 05:10:18;;;;;;;13.37;7.10;;;6.90;61.00;;;;;;4941462;29;20027;-80
2022/03/12 05:12:51;;;;;;;14.57;7.17;;;6.80;61.00;;;;;;4941665;29;20031;-79
2022/03/12 05:15:17;;;;;;;14.87;7.27;;;6.80;61.20;;;;;;4941672;29;20125;-81
2022/03/12 05:17:46;;;;;;;12.23;6.70;;;6.90;61.90;;;;;;4941440;29;20147;-83
2022/03/12 05:20:18;;;;;;;10.87;6.67;;;6.90;61.80;;;;;;4941466;29;20035;-82
2022/03/12 05:22:44;;;;;;;18.45;7.10;;;6.90;61.10;;;;;;4941763;29;20043;-82
2022/03/12 05:25:10;;;;;;;12.77;6.37;;;6.90;60.10;;;;;;4958110;29;20464;-83
2022/03/12 05:27:36;;;;;;;12.77;6.53;;;7.00;59.60;;;;;;4941755;29;20027;-83
2022/03/12 05:30:03;;;;;;;11.57;6.57;;;7.00;59.70;;;;;;4940805;29;20093;-82
2022/03/12 05:32:29;;;;;;;14.53;6.70;;;6.90;60.70;;;;;;4941226;29;20054;-82
2022/03/12 05:34:54;;;;;;;12.85;6.57;;;6.90;60.20;;;;;;4957454;29;20059;-82
2022/03/12 05:37:22;;;;;;;13.53;7.00;;;6.90;59.70;;;;;;4957707;29;20035;-82
2022/03/12 05:39:51;;;;;;;15.07;6.63;;;6.90;60.90;;;;;;4941048;29;20027;-79
2022/03/12 05:42:18;;;;;;;17.23;7.27;;;6.80;60.30;;;;;;4941177;29;20038;-83
2022/03/12 05:44:44;;;;;;;12.97;7.10;;;6.70;60.50;;;;;;4941203;29;20032;-83
2022/03/12 05:47:10;;;;;;;12.80;6.63;;;6.70;61.60;;;;;;4940268;29;20027;-83
2022/03/12 05:49:36;;;;;;;12.30;6.37;;;6.60;61.20;;;;;;4957694;28;20051;-83
2022/03/12 05:52:02;;;;;;;13.13;6.50;;;6.60;62.30;;;;;;4940076;29;20034;-80
2022/03/12 05:54:28;;;;;;;14.33;6.97;;;6.60;62.50;;;;;;4940738;29;20032;-80
2022/03/12 05:56:55;;;;;;;13.03;6.73;;;6.60;61.60;;;;;;4940101;29;20146;-80
2022/03/12 05:59:21;;;;;;;14.83;7.00;;;6.60;61.50;;;;;;4957859;29;20054;-80
2022/03/12 06:01:46;;;;;;;14.53;6.90;;;6.50;61.30;;;;;;4940546;29;20027;-80
2022/03/12 06:04:12;;;;;;;16.53;7.17;;;6.50;61.40;;;;;;4939499;29;20027;-80
2022/03/12 06:06:45;;;;;;;13.73;6.80;;;6.50;62.00;;;;;;4940687;29;20126;-81
2022/03/12 06:09:11;;;;;;;15.03;7.10;;;6.50;62.30;;;;;;4940061;29;20023;-81
2022/03/12 06:11:37;;;;;;;12.03;6.23;;;6.50;63.00;;;;;;4940509;29;20038;-80
2022/03/12 06:14:03;;;;;;;16.97;7.03;;;6.60;63.40;;;;;;4939913;29;20125;-80
2022/03/12 06:16:29;;;;;;;13.40;6.77;;;6.70;61.60;;;;;;4940619;29;20489;-83
2022/03/12 06:18:54;;;;;;;12.53;6.83;;;6.70;61.90;;;;;;4940046;29;20032;-81
2022/03/12 06:21:21;;;;;;;13.13;7.10;;;6.70;62.50;;;;;;4957483;29;20495;-81
2022/03/12 06:23:47;;;;;;;13.20;6.37;;;6.70;61.90;;;;;;4940157;29;20034;-82
2022/03/12 06:26:14;;;;;;;12.77;6.67;;;6.70;61.80;;;;;;4956615;29;20070;-82
2022/03/12 06:28:44;;;;;;;13.13;6.30;;;6.70;62.40;;;;;;4957045;29;20027;-81
2022/03/12 06:31:12;;;;;;;14.43;6.93;;;6.80;62.90;;;;;;4939745;29;20057;-81
2022/03/12 06:33:39;;;;;;;13.40;6.20;;;6.80;61.80;;;;;;4940157;29;20023;-81
2022/03/12 06:36:06;;;;;;;16.10;6.60;;;6.90;61.80;;;;;;4939214;29;20055;-80
2022/03/12 06:38:32;;;;;;;13.60;6.50;;;6.90;62.00;;;;;;4939885;29;20114;-79
2022/03/12 06:40:58;;;;;;;13.40;6.37;;;7.00;61.90;;;;;;4939578;29;20023;-80
2022/03/12 06:43:28;;;;;;;12.63;6.10;;;6.90;61.00;;;;;;4939425;29;20042;-80
2022/03/12 06:45:58;;;;;;;11.97;6.40;;;6.90;61.60;;;;;;4939534;29;20393;-78
2022/03/12 06:48:25;;;;;;;11.33;6.27;;;7.00;62.10;;;;;;4956981;29;20027;-79
2022/03/12 06:50:51;;;;;;;11.03;6.10;;;7.00;61.60;;;;;;4956644;28;20043;-76
2022/03/12 06:53:17;;;;;;;13.53;6.40;;;7.00;61.00;;;;;;4939755;29;20034;-80
2022/03/12 06:55:43;;;;;;;11.87;5.80;;;7.00;61.40;;;;;;4956867;29;20020;-81
2022/03/12 06:58:09;;;;;;;11.80;6.10;;;7.00;61.30;;;;;;4939282;29;20122;-81
2022/03/12 07:00:35;;;;;;;14.00;6.50;;;7.00;60.70;;;;;;4939512;29;20039;-81
2022/03/12 07:03:01;;;;;;;13.20;6.77;;;7.00;60.00;;;;;;4956063;29;20031;-81
2022/03/12 07:05:28;;;;;;;14.73;6.57;;;7.00;59.90;;;;;;4939635;29;20030;-81
2022/03/12 07:07:55;;;;;;;14.20;6.30;;;7.00;61.20;;;;;;4956157;29;20050;-77
2022/03/12 07:10:22;;;;;;;13.33;6.77;;;7.00;61.40;;;;;;4956177;29;20034;-78
2022/03/12 07:12:48;;;;;;;13.77;6.53;;;7.00;62.10;;;;;;4938994;29;20030;-79
2022/03/12 07:15:18;;;;;;;12.73;6.43;;;7.00;60.40;;;;;;4938432;29;20117;-79
2022/03/12 07:17:43;;;;;;;14.20;6.33;;;7.10;61.80;;;;;;4938528;29;20043;-79
2022/03/12 07:20:11;;;;;;;17.30;6.63;;;7.00;61.90;;;;;;4955282;29;20031;-79
2022/03/12 07:22:37;;;;;;;15.43;6.60;;;7.10;62.90;;;;;;4938123;29;20031;-83
2022/03/12 07:25:03;;;;;;;15.67;7.07;;;7.00;61.30;;;;;;4938858;29;20023;-83
2022/03/12 07:27:28;;;;;;;13.52;6.70;;;7.10;62.90;;;;;;4956127;29;20082;-83
2022/03/12 07:29:54;;;;;;;13.50;6.88;;;7.10;62.20;;;;;;4938895;29;20031;-80
2022/03/12 07:32:20;;;;;;;12.43;6.80;;;7.20;61.30;;;;;;4938983;29;20027;-83
2022/03/12 07:34:47;;;;;;;13.77;6.37;;;7.20;60.80;;;;;;4938930;29;20023;-80
2022/03/12 07:37:12;;;;;;;13.47;7.23;;;7.30;62.50;;;;;;4938188;29;20797;-81
2022/03/12 07:39:39;;;;;;;14.55;7.13;;;7.30;62.60;;;;;;4938890;29;20081;-81
2022/03/12 07:42:05;;;;;;;11.90;6.70;;;7.40;62.30;;;;;;4955479;29;20035;-81
2022/03/12 07:44:31;;;;;;;14.87;7.57;;;7.40;59.70;;;;;;4955986;29;20027;-80
2022/03/12 07:46:57;;;;;;;15.50;7.30;;;7.50;59.00;;;;;;4938300;29;20042;-79
2022/03/12 07:49:25;;;;;;;18.05;7.50;;;7.60;59.00;;;;;;4938336;29;20055;-81
2022/03/12 07:51:50;;;;;;;14.43;7.30;;;7.60;59.60;;;;;;4938918;29;20067;-81
2022/03/12 07:54:16;;;;;;;12.55;6.85;;;7.70;59.00;;;;;;4954572;29;20079;-81
2022/03/12 07:56:43;;;;;;;13.98;7.40;;;7.80;59.30;;;;;;4955374;29;20035;-81
2022/03/12 07:59:10;;;;;;;15.30;7.47;;;7.90;60.70;;;;;;4938407;29;20031;-81
2022/03/12 08:01:36;;;;;;;16.30;6.93;;;7.90;59.10;;;;;;4955526;29;20031;-79
2022/03/12 08:04:02;;;;;;;12.57;6.72;;;8.00;59.50;;;;;;4938073;29;20436;-79
2022/03/12 08:06:29;;;;;;;15.30;7.72;;;8.10;58.50;;;;;;4938927;29;20098;-81
2022/03/12 08:08:57;;;;;;;14.70;7.63;;;8.10;58.20;;;;;;4955274;29;20031;-81
2022/03/12 08:11:25;;;;;;;14.38;6.80;;;8.20;59.70;;;;;;4955834;29;20110;-82
2022/03/12 08:14:02;;;;;;;11.57;6.68;;;8.30;57.70;;;;;;4955559;29;20078;-81
2022/03/12 08:16:33;;;;;;;13.93;7.45;;;8.30;56.80;;;;;;4953454;29;20034;-81
2022/03/12 08:19:07;;;;;;;10.82;5.80;;;8.40;58.10;;;;;;4918849;29;20036;-82
2022/03/12 08:21:34;;;;;;;14.10;7.65;;;8.50;58.50;;;;;;4919174;29;20142;-81
2022/03/12 08:24:02;;;;;;;13.60;6.88;;;8.60;58.60;;;;;;4918472;29;20043;-80
2022/03/12 08:26:28;;;;;;;16.27;7.38;;;8.70;57.80;;;;;;4919270;29;20024;-84
2022/03/12 08:28:54;;;;;;;29.55;10.43;;;8.80;57.50;;;;;;4936521;29;20099;-82
2022/03/12 08:31:21;;;;;;;19.17;7.75;;;8.80;56.80;;;;;;4912020;29;20119;-81
2022/03/12 08:33:46;;;;;;;15.75;7.63;;;8.90;57.50;;;;;;4920541;29;20035;-81
2022/03/12 08:36:14;;;;;;;17.88;7.88;;;9.00;55.90;;;;;;4920927;29;20119;-81
2022/03/12 08:38:40;;;;;;;13.77;7.45;;;9.00;56.00;;;;;;4938262;29;20100;-82
2022/03/12 08:41:08;;;;;;;16.17;7.45;;;9.10;56.90;;;;;;4913712;29;20028;-80
2022/03/12 08:43:37;;;;;;;15.75;7.43;;;9.10;56.50;;;;;;4904052;29;20181;-79
2022/03/12 08:46:05;;;;;;;19.88;8.45;;;9.20;57.10;;;;;;4919648;29;20043;-79
2022/03/12 08:48:32;;;;;;;18.17;7.70;;;9.30;56.70;;;;;;4909921;29;20477;-79
2022/03/12 08:50:58;;;;;;;19.90;8.77;;;9.30;57.50;;;;;;4943210;29;20114;-78
2022/03/12 08:53:23;;;;;;;16.17;8.32;;;9.40;56.30;;;;;;4931362;29;20484;-83
2022/03/12 08:55:49;;;;;;;16.27;8.25;;;9.40;57.00;;;;;;4925398;29;20040;-78
2022/03/12 08:58:15;;;;;;;14.68;7.22;;;9.40;57.10;;;;;;4910644;29;20028;-80
2022/03/12 09:00:42;;;;;;;17.52;8.15;;;9.50;56.80;;;;;;4912610;29;20358;-79
2022/03/12 09:03:09;;;;;;;20.17;7.68;;;9.50;58.00;;;;;;4929473;29;20397;-79
2022/03/12 09:05:36;;;;;;;16.00;7.78;;;9.50;57.30;;;;;;4928258;29;20028;-79
2022/03/12 09:08:02;;;;;;;14.77;7.70;;;9.50;57.10;;;;;;4910539;29;20458;-77
2022/03/12 09:10:28;;;;;;;20.30;8.40;;;9.50;55.40;;;;;;4928266;29;20020;-77
2022/03/12 09:12:55;;;;;;;16.35;7.80;;;9.50;56.00;;;;;;4913484;29;20381;-79
2022/03/12 09:15:24;;;;;;;16.02;7.50;;;9.60;57.00;;;;;;4910444;29;20051;-78
2022/03/12 09:17:53;;;;;;;16.27;6.85;;;9.60;57.80;;;;;;4927772;29;20045;-78
2022/03/12 09:20:19;;;;;;;16.60;7.70;;;9.70;56.50;;;;;;4930131;29;20484;-79
2022/03/12 09:22:45;;;;;;;15.23;8.10;;;9.70;56.20;;;;;;4930625;29;20059;-79
2022/03/12 09:25:13;;;;;;;15.52;7.45;;;9.80;55.90;;;;;;4909798;29;20028;-81
2022/03/12 09:27:45;;;;;;;12.48;7.40;;;9.70;54.70;;;;;;4909112;29;20032;-79
2022/03/12 09:30:14;;;;;;;12.18;7.50;;;9.80;55.00;;;;;;4926630;29;20020;-77
2022/03/12 09:32:41;;;;;;;14.45;7.45;;;9.80;55.50;;;;;;4911773;29;20027;-76
2022/03/12 09:35:07;;;;;;;14.00;7.72;;;9.90;56.00;;;;;;4910770;29;20025;-76
2022/03/12 09:37:34;;;;;;;18.50;9.00;;;9.90;55.60;;;;;;4927161;29;20520;-76
2022/03/12 09:40:00;;;;;;;15.00;8.30;;;10.00;56.00;;;;;;4905808;29;20434;-76
2022/03/12 09:42:30;;;;;;;17.73;7.75;;;10.00;55.80;;;;;;4925835;29;20024;-78
2022/03/12 09:44:57;;;;;;;15.05;8.15;;;10.00;56.70;;;;;;4911878;29;20528;-80
2022/03/12 09:47:22;;;;;;;16.15;8.13;;;10.10;55.70;;;;;;4913510;29;20028;-80
2022/03/12 09:49:48;;;;;;;14.65;7.20;;;10.20;55.70;;;;;;4930897;29;20070;-81
2022/03/12 09:52:14;;;;;;;15.65;8.23;;;10.30;55.50;;;;;;4910725;29;20035;-81
2022/03/12 09:54:41;;;;;;;16.73;7.68;;;10.30;55.70;;;;;;4929844;29;20358;-82
2022/03/12 09:57:07;;;;;;;20.40;8.20;;;10.40;54.80;;;;;;4918398;29;20039;-76
2022/03/12 09:59:33;;;;;;;14.50;7.50;;;10.50;55.30;;;;;;4937164;29;20469;-79
2022/03/12 10:02:00;;;;;;;17.48;8.82;;;10.70;55.70;;;;;;4935252;29;20155;-75
2022/03/12 10:04:26;;;;;;;17.92;8.70;;;10.80;55.70;;;;;;4917164;29;20078;-78
2022/03/12 10:06:51;;;;;;;16.77;8.00;;;10.80;55.20;;;;;;4920465;29;20452;-80
2022/03/12 10:09:17;;;;;;;17.35;7.20;;;10.90;55.40;;;;;;4918951;29;20561;-77
2022/03/12 10:11:44;;;;;;;13.73;7.63;;;10.90;55.00;;;;;;4937039;29;20028;-77
2022/03/12 10:14:10;;;;;;;17.70;8.52;;;11.10;55.50;;;;;;4919118;29;20079;-76
2022/03/12 10:16:35;;;;;;;13.30;7.80;;;11.10;55.40;;;;;;4916842;29;20032;-77
2022/03/12 10:19:02;;;;;;;16.55;8.10;;;11.10;56.10;;;;;;4919102;29;20032;-74
2022/03/12 10:21:28;;;;;;;16.38;7.85;;;11.20;55.10;;;;;;4919934;29;20028;-77
2022/03/12 10:23:53;;;;;;;16.73;8.88;;;11.30;54.50;;;;;;4931972;29;20389;-77
2022/03/12 10:26:19;;;;;;;17.08;7.88;;;11.30;54.80;;;;;;4929924;29;20295;-76
2022/03/12 10:28:45;;;;;;;18.67;8.52;;;11.30;53.80;;;;;;4913913;29;20079;-77
2022/03/12 10:31:12;;;;;;;16.27;8.02;;;11.40;54.50;;;;;;4936413;29;20028;-77
2022/03/12 10:33:38;;;;;;;16.85;8.90;;;11.50;55.30;;;;;;4936988;29;20508;-77
2022/03/12 10:36:12;;;;;;;17.40;8.85;;;11.60;55.40;;;;;;4918333;29;20027;-80
2022/03/12 10:38:43;;;;;;;17.40;9.05;;;11.70;55.10;;;;;;4924808;29;20119;-83
2022/03/12 10:41:10;;;;;;;15.73;8.23;;;11.70;54.90;;;;;;4942814;29;20090;-78
2022/03/12 10:43:48;;;;;;;19.02;8.10;;;11.80;55.80;;;;;;4936012;29;20028;-78
2022/03/12 10:46:27;;;;;;;18.25;7.97;;;11.90;54.30;;;;;;4935993;29;20023;-77
2022/03/12 10:48:56;;;;;;;16.27;8.23;;;11.90;54.80;;;;;;4919407;29;20028;-78
2022/03/12 10:51:25;;;;;;;17.13;8.75;;;11.90;55.40;;;;;;4918942;29;20038;-77
2022/03/12 10:53:51;;;;;;;14.80;7.82;;;12.00;55.00;;;;;;4920326;29;20039;-80
2022/03/12 10:56:17;;;;;;;16.63;8.52;;;12.10;54.20;;;;;;4922327;29;20032;-81
2022/03/12 10:58:43;;;;;;;15.25;7.70;;;12.20;55.00;;;;;;4920467;29;20035;-80
2022/03/12 11:01:08;;;;;;;15.98;8.38;;;12.20;54.40;;;;;;4939263;29;20031;-81
2022/03/12 11:03:36;;;;;;;18.45;8.00;;;12.30;54.70;;;;;;4922179;29;20043;-79
2022/03/12 11:06:04;;;;;;;18.50;7.65;;;12.30;55.20;;;;;;4921854;29;20079;-77
2022/03/12 11:08:32;;;;;;;15.52;7.38;;;12.50;56.00;;;;;;4922559;29;20044;-79
2022/03/12 11:11:11;;;;;;;16.13;8.23;;;12.60;55.80;;;;;;4921604;29;20473;-79
2022/03/12 11:13:40;;;;;;;14.82;7.80;;;12.70;53.90;;;;;;4938829;29;20023;-76
2022/03/12 11:16:26;;;;;;;13.60;7.65;;;12.90;54.90;;;;;;4923211;29;20028;-75
2022/03/12 11:18:52;;;;;;;17.38;8.20;;;13.00;54.20;;;;;;4909494;29;20036;-76
2022/03/12 11:21:51;;;;;;;17.20;7.97;;;13.10;52.40;;;;;;4921221;29;20028;-77
2022/03/12 11:24:22;;;;;;;14.07;7.53;;;13.20;54.40;;;;;;4922071;29;20038;-76
2022/03/12 11:26:58;;;;;;;16.90;8.48;;;13.20;54.10;;;;;;4938661;29;20024;-76
2022/03/12 11:29:26;;;;;;;14.13;7.60;;;13.30;54.80;;;;;;4920796;29;20032;-76
2022/03/12 11:31:56;;;;;;;14.07;7.53;;;13.50;54.10;;;;;;4921919;29;20088;-76
2022/03/12 11:34:39;;;;;;;17.45;8.25;;;13.50;53.60;;;;;;4919778;29;20023;-76
2022/03/12 11:37:13;;;;;;;12.85;7.63;;;13.70;52.40;;;;;;4920727;29;20032;-77
2022/03/12 11:39:46;;;;;;;13.73;7.88;;;13.90;52.00;;;;;;4921193;29;20031;-76
2022/03/12 11:42:30;;;;;;;16.48;7.68;;;14.00;52.30;;;;;;4937764;29;20373;-76
2022/03/12 11:45:00;;;;;;;15.13;8.18;;;14.10;52.80;;;;;;4920653;29;20027;-76
2022/03/12 11:47:31;;;;;;;15.63;7.93;;;14.20;53.70;;;;;;4937947;29;20044;-76
2022/03/12 11:49:58;;;;;;;16.63;8.20;;;14.30;52.00;;;;;;4921274;29;20087;-77
2022/03/12 11:52:24;;;;;;;13.02;7.38;;;14.30;51.60;;;;;;4938259;29;20262;-77
2022/03/12 11:54:54;;;;;;;15.52;7.85;;;14.30;52.20;;;;;;4937391;29;20466;-76
2022/03/12 11:57:27;;;;;;;15.90;7.43;;;14.40;51.90;;;;;;4937494;29;20039;-76
2022/03/12 11:59:57;;;;;;;15.95;7.70;;;14.40;52.70;;;;;;4920607;29;20031;-74
2022/03/12 12:02:34;;;;;;;13.07;6.65;;;14.50;52.40;;;;;;4934800;29;20066;-75
2022/03/12 12:05:11;;;;;;;15.10;6.43;;;14.50;54.10;;;;;;4936828;29;20031;-74
2022/03/12 12:07:39;;;;;;;11.45;6.07;;;14.50;54.60;;;;;;4920162;29;20023;-77
2022/03/12 12:10:09;;;;;;;12.25;6.78;;;14.50;54.50;;;;;;4919276;29;20054;-77
2022/03/12 12:12:35;;;;;;;11.70;6.82;;;14.60;54.30;;;;;;4917396;29;20374;-75
2022/03/12 12:15:03;;;;;;;11.10;5.95;;;14.70;53.70;;;;;;4907069;29;20473;-75
2022/03/12 12:17:30;;;;;;;13.02;6.50;;;14.80;53.90;;;;;;4919406;29;20047;-75
2022/03/12 12:19:57;;;;;;;11.98;6.45;;;14.90;52.70;;;;;;4919515;29;20032;-76
2022/03/12 12:22:23;;;;;;;14.27;6.65;;;15.00;52.70;;;;;;4919263;29;20032;-76
2022/03/12 12:24:52;;;;;;;11.77;6.47;;;15.20;53.30;;;;;;4919589;29;20064;-78
2022/03/12 12:27:23;;;;;;;12.77;6.30;;;15.40;52.50;;;;;;4933983;29;20390;-78
2022/03/12 12:29:54;;;;;;;11.30;6.10;;;15.50;51.50;;;;;;4936480;29;20023;-75
2022/03/12 12:32:26;;;;;;;10.98;5.88;;;15.60;51.30;;;;;;4915404;29;20024;-77
2022/03/12 12:35:04;;;;;;;8.13;5.15;;;15.70;51.40;;;;;;4913144;29;20171;-76
2022/03/12 12:37:45;;;;;;;9.75;5.70;;;15.70;51.40;;;;;;4919848;29;20160;-77
2022/03/12 12:40:41;;;;;;;11.70;5.50;;;15.80;51.80;;;;;;4917584;29;20031;-77
2022/03/12 12:43:10;;;;;;;12.50;5.72;;;15.90;50.80;;;;;;4906801;29;20040;-77
2022/03/12 12:45:52;;;;;;;9.77;5.15;;;15.90;50.80;;;;;;4912133;29;20358;-77
2022/03/12 12:48:30;;;;;;;7.80;4.80;;;16.00;52.50;;;;;;4936329;29;20049;-77
2022/03/12 12:51:16;;;;;;;11.45;5.30;;;16.10;51.60;;;;;;4919367;29;20099;-76